Time;durP1;ratioP1;P1;durP2;ratioP2;P2;SDS_P1;SDS_P2;PMS_P1;PMS_P2;Temp;Humidity;BMP_temperature;BMP_pressure;BME280_temperature;BME280_humidity;BME280_pressure;Samples;Min_cycle;Max_cycle;Signal;HPM_P1;HPM_P2
2023/02/08 00:00:37;;;;;;;0.70;0.70;;;1.30;99.90;;;;;;5119390;27;20191;-77
2023/02/08 00:03:06;;;;;;;0.80;0.80;;;1.30;99.90;;;;;;5150473;27;20234;-77
2023/02/08 00:05:32;;;;;;;0.60;0.60;;;1.30;99.90;;;;;;5135779;27;20199;-77
2023/02/08 00:08:00;;;;;;;0.60;0.60;;;1.30;99.90;;;;;;5116914;27;20202;-77
2023/02/08 00:10:27;;;;;;;0.50;0.50;;;1.30;99.90;;;;;;5135836;27;20282;-77
2023/02/08 00:12:52;;;;;;;0.70;0.70;;;1.30;99.90;;;;;;5118047;27;20191;-78
2023/02/08 00:15:18;;;;;;;0.60;0.60;;;1.30;99.90;;;;;;5118146;27;20202;-78
2023/02/08 00:17:44;;;;;;;0.95;0.95;;;1.30;99.90;;;;;;5110004;28;20199;-77
2023/02/08 00:20:14;;;;;;;0.80;0.80;;;1.30;99.90;;;;;;5116253;28;20237;-79
2023/02/08 00:22:40;;;;;;;0.70;0.70;;;1.30;99.90;;;;;;5130973;27;20673;-77
2023/02/08 00:25:07;;;;;;;0.60;0.60;;;1.30;99.90;;;;;;5131075;27;20203;-77
2023/02/08 00:27:32;;;;;;;0.60;0.60;;;1.40;99.90;;;;;;5130819;27;20202;-77
2023/02/08 00:29:58;;;;;;;0.68;0.68;;;1.40;99.90;;;;;;5095804;28;20278;-77
2023/02/08 00:32:24;;;;;;;0.60;0.60;;;1.40;99.90;;;;;;5114051;28;20192;-77
2023/02/08 00:34:50;;;;;;;0.80;0.80;;;1.40;99.90;;;;;;5115196;28;20266;-77
2023/02/08 00:37:16;;;;;;;0.50;0.50;;;1.40;99.90;;;;;;5086018;28;20819;-76
2023/02/08 00:39:42;;;;;;;2.60;1.90;;;1.30;99.90;;;;;;5076783;28;20279;-77
2023/02/08 00:42:08;;;;;;;1.27;1.27;;;1.30;99.90;;;;;;5076959;28;20678;-78
2023/02/08 00:44:34;;;;;;;0.88;0.88;;;1.30;99.90;;;;;;5076617;28;20230;-78
2023/02/08 00:47:02;;;;;;;0.60;0.60;;;1.30;99.90;;;;;;5076467;28;20211;-78
2023/02/08 00:49:29;;;;;;;0.60;0.60;;;1.30;99.90;;;;;;5076149;28;20208;-78
2023/02/08 00:51:54;;;;;;;0.70;0.70;;;1.30;99.90;;;;;;5094801;28;20196;-77
2023/02/08 00:54:21;;;;;;;0.70;0.70;;;1.30;99.90;;;;;;5076809;28;20651;-78
2023/02/08 00:56:47;;;;;;;0.70;0.70;;;1.30;99.90;;;;;;5077425;28;20249;-77
2023/02/08 00:59:13;;;;;;;0.60;0.60;;;1.30;99.90;;;;;;5077216;28;20192;-77
2023/02/08 01:01:39;;;;;;;0.60;0.60;;;1.30;99.90;;;;;;5077118;28;20200;-77
2023/02/08 01:04:14;;;;;;;0.60;0.60;;;1.30;99.90;;;;;;5094883;28;20736;-76
2023/02/08 01:07:40;;;;;;;0.40;0.40;;;1.30;99.90;;;;;;5096236;28;20204;-77
2023/02/08 01:10:40;;;;;;;0.52;0.52;;;1.20;99.90;;;;;;5057567;28;20229;-77
2023/02/08 01:13:35;;;;;;;0.65;0.65;;;1.20;99.90;;;;;;5077125;28;20196;-78
2023/02/08 01:16:39;;;;;;;0.52;0.52;;;1.20;99.90;;;;;;4978193;28;20211;-78
2023/02/08 01:19:05;;;;;;;0.60;0.60;;;1.20;99.90;;;;;;4972456;28;20266;-78
2023/02/08 01:21:34;;;;;;;0.50;0.50;;;1.20;99.90;;;;;;4973390;28;20212;-77
2023/02/08 01:24:00;;;;;;;0.70;0.70;;;1.20;99.90;;;;;;4974064;28;20248;-78
2023/02/08 01:26:26;;;;;;;0.60;0.60;;;1.20;99.90;;;;;;4963036;28;20219;-78
2023/02/08 01:28:53;;;;;;;0.80;0.80;;;1.20;99.90;;;;;;5011195;28;20194;-79
2023/02/08 01:31:25;;;;;;;0.60;0.60;;;1.20;99.90;;;;;;5011575;28;20779;-79
2023/02/08 01:33:51;;;;;;;0.60;0.60;;;1.30;99.90;;;;;;4997470;28;20219;-78
2023/02/08 01:43:36;;;;;;;;;;;;;;;;;;;;;
2023/02/08 01:46:06;;;;;;;0.55;0.55;;;1.20;99.90;;;;;;4992683;28;20225;-76
2023/02/08 01:48:39;;;;;;;0.52;0.52;;;1.20;99.90;;;;;;5013095;28;20285;-76
2023/02/08 01:55:04;;;;;;;0.60;0.60;;;1.20;99.90;;;;;;5060593;28;20208;-81
2023/02/08 01:57:44;;;;;;;0.60;0.60;;;1.20;99.90;;;;;;5119085;28;20327;-81
2023/02/08 02:00:47;;;;;;;0.63;0.63;;;1.20;99.90;;;;;;5101564;28;20258;-77
2023/02/08 02:03:37;;;;;;;0.60;0.60;;;1.30;99.90;;;;;;5104120;27;20480;-79
2023/02/08 02:06:09;;;;;;;0.60;0.60;;;1.30;99.90;;;;;;5158774;27;20689;-79
2023/02/08 02:09:13;;;;;;;0.63;0.63;;;1.30;99.90;;;;;;5141088;27;20240;-78
2023/02/08 02:11:42;;;;;;;0.68;0.68;;;1.30;99.90;;;;;;5118574;27;20195;-78
2023/02/08 02:14:47;;;;;;;0.75;0.73;;;1.30;99.90;;;;;;5101249;28;20197;-79
2023/02/08 02:21:15;;;;;;;0.60;0.60;;;1.30;99.90;;;;;;5064825;27;20198;-77
2023/02/08 02:23:53;;;;;;;0.60;0.60;;;1.30;99.90;;;;;;5120064;27;20223;-78
2023/02/08 02:26:39;;;;;;;0.60;0.60;;;1.20;99.90;;;;;;5138247;27;20198;-79
2023/02/08 02:29:34;;;;;;;0.60;0.60;;;1.30;99.90;;;;;;5137178;27;20197;-78
2023/02/08 02:32:12;;;;;;;0.60;0.60;;;1.30;99.90;;;;;;5118933;27;20278;-79
2023/02/08 02:35:05;;;;;;;0.80;0.80;;;1.40;99.90;;;;;;5137665;27;20265;-79
2023/02/08 02:37:48;;;;;;;0.50;0.50;;;1.40;99.90;;;;;;5119265;27;20641;-78
2023/02/08 02:40:48;;;;;;;0.60;0.60;;;1.40;99.90;;;;;;5098899;28;20215;-79
2023/02/08 02:43:41;;;;;;;0.47;0.47;;;1.40;99.90;;;;;;5079276;28;20277;-77
2023/02/08 02:46:34;;;;;;;0.57;0.57;;;1.40;99.90;;;;;;5094382;28;20614;-77
2023/02/08 02:49:26;;;;;;;0.60;0.60;;;1.50;99.90;;;;;;5094271;28;20188;-78
2023/02/08 02:52:05;;;;;;;0.80;0.77;;;1.50;99.90;;;;;;5086749;28;20236;-78
2023/02/08 02:54:56;;;;;;;0.70;0.70;;;1.50;99.90;;;;;;5095485;28;20196;-78
2023/02/08 02:57:31;;;;;;;1.80;1.25;;;1.50;99.90;;;;;;5094735;28;20188;-78
2023/02/08 02:59:58;;;;;;;0.60;0.60;;;1.50;99.90;;;;;;5077751;28;20658;-78
2023/02/08 03:02:28;;;;;;;0.60;0.60;;;1.60;99.90;;;;;;5096247;28;20561;-78
2023/02/08 03:04:56;;;;;;;0.60;0.60;;;1.60;99.90;;;;;;5115848;28;20183;-77
2023/02/08 03:07:57;;;;;;;0.52;0.52;;;1.60;99.90;;;;;;5098121;28;20274;-77
2023/02/08 03:10:57;;;;;;;0.60;0.60;;;1.60;99.90;;;;;;5089505;28;20671;-78
2023/02/08 03:13:50;;;;;;;0.60;0.60;;;1.70;99.90;;;;;;5078130;28;20200;-78
2023/02/08 03:16:28;;;;;;;0.60;0.60;;;1.80;99.90;;;;;;5077661;28;20638;-78
2023/02/08 03:19:28;;;;;;;0.70;0.70;;;1.70;99.90;;;;;;5096743;28;20199;-78
2023/02/08 03:22:23;;;;;;;0.63;0.63;;;1.70;99.90;;;;;;5115687;28;20195;-78
2023/02/08 03:25:04;;;;;;;0.60;0.60;;;1.70;99.90;;;;;;5097188;28;20203;-79
2023/02/08 03:27:47;;;;;;;0.68;0.68;;;1.70;99.90;;;;;;5098546;28;20192;-79
2023/02/08 03:30:18;;;;;;;0.60;0.60;;;1.70;99.90;;;;;;5098782;28;20620;-78
2023/02/08 03:32:57;;;;;;;0.70;0.70;;;1.70;99.90;;;;;;5116505;28;20668;-78
2023/02/08 03:35:47;;;;;;;0.60;0.60;;;1.70;99.90;;;;;;5116496;28;20215;-79
2023/02/08 03:38:36;;;;;;;0.60;0.60;;;1.70;99.90;;;;;;5120332;27;20303;-79
2023/02/08 03:41:05;;;;;;;0.70;0.70;;;1.70;99.90;;;;;;5152768;27;20195;-78
2023/02/08 03:43:39;;;;;;;0.60;0.60;;;1.70;99.90;;;;;;5152506;27;20191;-78
2023/02/08 03:46:20;;;;;;;0.60;0.60;;;1.70;99.90;;;;;;5135883;27;20293;-78
2023/02/08 03:48:55;;;;;;;0.60;0.60;;;1.60;99.90;;;;;;5117525;27;20627;-79
2023/02/08 03:51:23;;;;;;;0.70;0.70;;;1.60;99.90;;;;;;5135388;27;20247;-78
2023/02/08 03:54:01;;;;;;;0.60;0.60;;;1.60;99.90;;;;;;5117773;27;20191;-78
2023/02/08 03:57:05;;;;;;;0.70;0.70;;;1.60;99.90;;;;;;5136321;27;20664;-79
2023/02/08 03:59:41;;;;;;;0.60;0.60;;;1.60;99.90;;;;;;5126161;27;20211;-78
2023/02/08 04:02:18;;;;;;;0.60;0.60;;;1.70;99.90;;;;;;5100884;28;20207;-79
2023/02/08 04:04:47;;;;;;;0.60;0.60;;;1.70;99.90;;;;;;5134658;27;20199;-78
2023/02/08 04:07:17;;;;;;;0.60;0.60;;;1.70;99.90;;;;;;5117334;27;20201;-78
2023/02/08 04:09:43;;;;;;;0.75;0.75;;;1.80;99.90;;;;;;5116797;27;20204;-78
2023/02/08 04:12:14;;;;;;;0.60;0.60;;;1.80;99.90;;;;;;5116804;27;20191;-78
2023/02/08 04:14:49;;;;;;;1.40;1.23;;;1.80;99.90;;;;;;5134775;27;20218;-78
2023/02/08 04:17:15;;;;;;;0.57;0.57;;;1.90;99.90;;;;;;5133386;27;20615;-78
2023/02/08 04:19:43;;;;;;;0.60;0.60;;;1.90;99.90;;;;;;5117732;27;20211;-78
2023/02/08 04:22:09;;;;;;;0.70;0.70;;;1.90;99.90;;;;;;5135615;27;20211;-78
2023/02/08 04:24:35;;;;;;;0.60;0.60;;;1.90;99.90;;;;;;5134485;27;20183;-77
2023/02/08 04:27:01;;;;;;;0.70;0.70;;;1.90;99.90;;;;;;5116312;27;20226;-78
2023/02/08 04:29:27;;;;;;;0.57;0.57;;;1.80;99.90;;;;;;5108112;28;20195;-78
2023/02/08 04:31:53;;;;;;;0.60;0.60;;;1.80;99.90;;;;;;5115074;28;20224;-78
2023/02/08 04:34:19;;;;;;;0.60;0.60;;;1.80;99.90;;;;;;5095338;28;20555;-78
2023/02/08 04:36:45;;;;;;;0.60;0.60;;;1.90;99.90;;;;;;5114427;28;20192;-78
2023/02/08 04:39:24;;;;;;;0.65;0.65;;;2.00;99.90;;;;;;5114550;28;20226;-78
2023/02/08 04:41:52;;;;;;;0.45;0.45;;;2.10;99.90;;;;;;5130232;27;20198;-79
2023/02/08 04:44:18;;;;;;;0.70;0.70;;;2.10;99.90;;;;;;5130429;27;20206;-79
2023/02/08 04:46:44;;;;;;;0.50;0.50;;;2.00;99.90;;;;;;5113997;28;20260;-78
2023/02/08 04:49:09;;;;;;;0.50;0.50;;;2.00;99.90;;;;;;5095275;28;20695;-78
2023/02/08 04:51:36;;;;;;;0.50;0.50;;;2.00;99.90;;;;;;5130260;27;20200;-79
2023/02/08 04:54:01;;;;;;;0.70;0.70;;;2.00;99.90;;;;;;5116922;27;20535;-77
2023/02/08 04:56:27;;;;;;;1.25;1.15;;;2.00;99.90;;;;;;5115714;27;20224;-79
2023/02/08 04:58:53;;;;;;;2.35;1.15;;;2.00;99.90;;;;;;5115760;27;20205;-78
2023/02/08 05:01:25;;;;;;;3.30;0.98;;;1.90;99.90;;;;;;5115511;27;20205;-78
2023/02/08 05:03:51;;;;;;;0.60;0.60;;;1.90;99.90;;;;;;5117269;27;20250;-78
2023/02/08 05:09:36;;;;;;;0.85;0.85;;;1.90;99.90;;;;;;5088865;28;20715;-76
2023/02/08 05:12:05;;;;;;;0.70;0.70;;;1.80;99.90;;;;;;5130423;27;20191;-77
2023/02/08 05:14:32;;;;;;;0.60;0.60;;;1.80;99.90;;;;;;5096357;28;20247;-77
2023/02/08 05:17:00;;;;;;;0.60;0.60;;;1.90;99.90;;;;;;5131275;27;20240;-77
2023/02/08 05:19:49;;;;;;;0.57;0.57;;;1.90;99.90;;;;;;5116874;27;20564;-79
2023/02/08 05:22:15;;;;;;;0.60;0.60;;;2.00;99.90;;;;;;5117238;27;20199;-81
2023/02/08 05:24:41;;;;;;;0.60;0.60;;;2.00;99.90;;;;;;5136142;28;20564;-78
2023/02/08 05:27:31;;;;;;;0.50;0.50;;;1.90;99.90;;;;;;5090153;28;20227;-79
2023/02/08 05:30:06;;;;;;;0.60;0.60;;;1.80;99.90;;;;;;5097955;28;20230;-78
2023/02/08 05:32:38;;;;;;;0.50;0.50;;;1.90;99.90;;;;;;5096038;28;20226;-77
2023/02/08 05:35:13;;;;;;;0.65;0.65;;;1.90;99.90;;;;;;5099655;28;20202;-79
2023/02/08 05:41:14;;;;;;;0.55;0.55;;;2.00;99.90;;;;;;5114154;28;20572;-79
2023/02/08 05:43:40;;;;;;;0.70;0.70;;;2.30;99.90;;;;;;5096258;28;20211;-78
2023/02/08 05:46:06;;;;;;;0.68;0.68;;;2.30;99.90;;;;;;5096397;28;20215;-76
2023/02/08 05:48:33;;;;;;;0.60;0.60;;;2.40;99.90;;;;;;5129720;28;20187;-75
2023/02/08 05:50:59;;;;;;;0.60;0.60;;;2.30;99.90;;;;;;5123393;28;20206;-76
2023/02/08 05:53:26;;;;;;;0.70;0.70;;;2.30;99.90;;;;;;5134359;27;20300;-77
2023/02/08 05:55:58;;;;;;;0.40;0.40;;;2.20;99.90;;;;;;5136647;27;20195;-76
2023/02/08 05:58:24;;;;;;;0.50;0.50;;;2.20;99.90;;;;;;5123845;28;20294;-77
2023/02/08 06:00:50;;;;;;;0.60;0.60;;;2.20;99.90;;;;;;5134210;28;20340;-77
2023/02/08 06:03:16;;;;;;;0.60;0.60;;;2.10;99.90;;;;;;5150048;27;20282;-77
2023/02/08 06:05:42;;;;;;;0.70;0.70;;;2.30;99.90;;;;;;5149307;27;20353;-77
2023/02/08 06:08:08;;;;;;;0.60;0.60;;;2.30;99.90;;;;;;5149353;27;20232;-78
2023/02/08 06:10:37;;;;;;;0.73;0.73;;;2.30;99.90;;;;;;5132130;28;20191;-76
2023/02/08 06:13:09;;;;;;;0.60;0.60;;;2.30;99.90;;;;;;5095034;28;20191;-76
2023/02/08 06:15:35;;;;;;;0.50;0.50;;;2.30;99.90;;;;;;5113073;28;20257;-75
2023/02/08 06:18:01;;;;;;;0.50;0.50;;;2.40;99.90;;;;;;5113443;28;20195;-75
2023/02/08 06:20:26;;;;;;;0.60;0.60;;;2.30;99.90;;;;;;5128635;28;20199;-76
2023/02/08 06:22:55;;;;;;;0.52;0.52;;;2.30;99.90;;;;;;5112929;28;20191;-77
2023/02/08 06:25:21;;;;;;;0.70;0.70;;;2.30;99.90;;;;;;5094676;28;20731;-77
2023/02/08 06:27:47;;;;;;;1.25;1.15;;;2.20;99.90;;;;;;5101570;28;20183;-77
2023/02/08 06:30:12;;;;;;;0.80;0.80;;;2.30;99.90;;;;;;5153479;27;20191;-77
2023/02/08 06:32:38;;;;;;;0.57;0.57;;;2.30;99.90;;;;;;5119347;27;20220;-77
2023/02/08 06:35:07;;;;;;;0.50;0.50;;;2.40;99.90;;;;;;5119502;27;20198;-77
2023/02/08 06:37:33;;;;;;;0.70;0.70;;;2.40;99.90;;;;;;5153574;27;20248;-77
2023/02/08 06:40:00;;;;;;;0.60;0.60;;;2.40;99.90;;;;;;5151079;27;20682;-77
2023/02/08 06:42:31;;;;;;;0.50;0.50;;;2.40;99.90;;;;;;5117431;28;20188;-77
2023/02/08 06:44:59;;;;;;;0.60;0.60;;;2.40;99.90;;;;;;5117589;28;20192;-78
2023/02/08 06:47:35;;;;;;;0.75;0.75;;;2.30;99.90;;;;;;5119511;28;20556;-76
2023/02/08 06:50:04;;;;;;;0.50;0.50;;;2.20;99.90;;;;;;5118577;28;20195;-77
2023/02/08 06:52:32;;;;;;;0.70;0.70;;;2.20;99.90;;;;;;5119805;28;20200;-77
2023/02/08 06:55:28;;;;;;;0.60;0.60;;;2.20;99.90;;;;;;5120055;28;20206;-78
2023/02/08 06:57:54;;;;;;;0.65;0.65;;;2.30;99.90;;;;;;5077341;28;20203;-78
2023/02/08 07:01:15;;;;;;;0.60;0.60;;;2.30;99.90;;;;;;5112990;28;20203;-79
2023/02/08 07:04:26;;;;;;;0.65;0.65;;;2.50;99.90;;;;;;5101030;28;20211;-78
2023/02/08 07:06:55;;;;;;;0.80;0.80;;;2.40;99.90;;;;;;5085221;28;20232;-77
2023/02/08 07:09:24;;;;;;;0.50;0.50;;;2.40;99.90;;;;;;5097290;28;20203;-77
2023/02/08 07:11:50;;;;;;;0.52;0.52;;;2.40;99.90;;;;;;5095701;28;20577;-76
2023/02/08 07:17:18;;;;;;;0.60;0.60;;;2.30;99.90;;;;;;5089654;28;20632;-76
2023/02/08 07:19:47;;;;;;;0.50;0.50;;;2.30;99.90;;;;;;5096635;28;20677;-77
2023/02/08 07:25:20;;;;;;;0.60;0.60;;;2.40;99.90;;;;;;5088085;28;20235;-77
2023/02/08 07:27:49;;;;;;;0.50;0.50;;;2.40;99.90;;;;;;5095968;28;20200;-77
2023/02/08 07:30:39;;;;;;;0.70;0.70;;;2.50;99.90;;;;;;5094505;28;20192;-77
2023/02/08 07:33:09;;;;;;;0.65;0.65;;;2.50;99.90;;;;;;5089478;28;20204;-75
2023/02/08 07:35:57;;;;;;;0.60;0.60;;;2.60;99.90;;;;;;5095762;28;20199;-76
2023/02/08 07:38:33;;;;;;;0.40;0.40;;;2.60;99.90;;;;;;5098612;28;20659;-77
2023/02/08 07:41:11;;;;;;;0.60;0.60;;;2.50;99.90;;;;;;5115587;27;20191;-77
2023/02/08 07:43:43;;;;;;;0.60;0.60;;;2.50;99.90;;;;;;5116163;28;20210;-77
2023/02/08 07:46:20;;;;;;;0.70;0.70;;;2.60;99.90;;;;;;5115989;28;20222;-77
2023/02/08 07:48:49;;;;;;;0.68;0.68;;;2.50;99.90;;;;;;5097357;28;20220;-76
2023/02/08 07:51:15;;;;;;;0.65;0.65;;;2.50;99.90;;;;;;5097041;28;20654;-77
2023/02/08 07:53:43;;;;;;;0.50;0.50;;;2.40;99.90;;;;;;5115906;28;20568;-76
2023/02/08 07:56:12;;;;;;;0.80;0.80;;;2.40;99.90;;;;;;5096928;28;20202;-77
2023/02/08 07:58:50;;;;;;;0.65;0.65;;;2.40;99.90;;;;;;5097693;28;20204;-77
2023/02/08 08:01:18;;;;;;;0.52;0.52;;;2.40;99.90;;;;;;5115914;28;20282;-77
2023/02/08 08:03:48;;;;;;;0.60;0.60;;;2.40;99.90;;;;;;5115882;28;20253;-77
2023/02/08 08:06:49;;;;;;;0.70;0.70;;;2.40;99.90;;;;;;5132047;27;20294;-76
2023/02/08 08:09:48;;;;;;;0.50;0.50;;;2.40;99.90;;;;;;5117665;27;20665;-77
2023/02/08 08:16:15;;;;;;;0.70;0.70;;;2.50;99.90;;;;;;5100739;28;20261;-77
2023/02/08 08:18:41;;;;;;;0.47;0.47;;;2.50;99.90;;;;;;5115674;28;20207;-77
2023/02/08 08:21:15;;;;;;;0.65;0.65;;;2.50;99.90;;;;;;5114995;28;20203;-78
2023/02/08 08:24:18;;;;;;;0.52;0.52;;;2.50;99.90;;;;;;5132588;27;20199;-78
2023/02/08 08:26:44;;;;;;;0.50;0.50;;;2.50;99.90;;;;;;5099329;28;20296;-78
2023/02/08 08:29:19;;;;;;;0.50;0.50;;;2.60;99.90;;;;;;5129758;27;20343;-78
2023/02/08 08:31:45;;;;;;;0.50;0.50;;;2.50;99.90;;;;;;5114200;28;20221;-77
2023/02/08 08:34:14;;;;;;;0.60;0.60;;;2.50;99.90;;;;;;5095718;28;20666;-78
2023/02/08 08:36:39;;;;;;;0.40;0.40;;;2.60;99.90;;;;;;5095318;28;20281;-78
2023/02/08 08:39:08;;;;;;;0.70;0.70;;;2.60;99.90;;;;;;5113648;28;20302;-78
2023/02/08 08:41:35;;;;;;;1.17;1.08;;;2.60;99.90;;;;;;5115304;28;20230;-77
2023/02/08 08:44:16;;;;;;;0.63;0.63;;;2.70;99.90;;;;;;5097172;28;20236;-78
2023/02/08 08:46:48;;;;;;;0.68;0.68;;;2.90;99.90;;;;;;5129228;27;20336;-77
2023/02/08 08:49:19;;;;;;;0.43;0.43;;;3.00;99.90;;;;;;5130993;27;20199;-78
2023/02/08 08:51:45;;;;;;;0.60;0.60;;;3.10;99.90;;;;;;5114096;28;20650;-78
2023/02/08 08:54:11;;;;;;;0.60;0.60;;;3.00;99.90;;;;;;5113936;27;20199;-77
2023/02/08 08:56:37;;;;;;;0.60;0.60;;;3.00;99.90;;;;;;5095281;28;20268;-76
2023/02/08 08:59:03;;;;;;;0.60;0.60;;;3.10;99.90;;;;;;5113688;28;20549;-77
2023/02/08 09:01:29;;;;;;;0.52;0.52;;;3.30;99.90;;;;;;5094662;28;20195;-78
2023/02/08 09:03:57;;;;;;;0.60;0.60;;;3.40;99.90;;;;;;5112884;28;20211;-77
2023/02/08 09:06:33;;;;;;;0.60;0.60;;;3.40;99.90;;;;;;5112284;28;20264;-78
2023/02/08 09:09:58;;;;;;;0.50;0.50;;;3.40;99.90;;;;;;5114883;28;20195;-78
2023/02/08 09:16:36;;;;;;;0.60;0.60;;;3.50;99.90;;;;;;5110000;28;20579;-80
2023/02/08 09:19:27;;;;;;;0.60;0.60;;;3.70;99.90;;;;;;5136329;27;20227;-76
2023/02/08 09:21:53;;;;;;;0.70;0.70;;;3.90;99.90;;;;;;5118329;28;20594;-77
2023/02/08 09:24:19;;;;;;;1.55;1.45;;;4.00;99.90;;;;;;5119037;28;20195;-76
2023/02/08 09:26:45;;;;;;;0.60;0.60;;;4.10;99.90;;;;;;5119284;28;20680;-76
2023/02/08 09:29:31;;;;;;;0.60;0.60;;;4.10;99.90;;;;;;5118875;28;20294;-79
2023/02/08 09:32:32;;;;;;;0.70;0.70;;;4.20;99.90;;;;;;5120381;28;20265;-78
2023/02/08 09:35:02;;;;;;;2.03;0.82;;;4.30;99.90;;;;;;5129451;28;20569;-77
2023/02/08 09:37:28;;;;;;;0.60;0.60;;;4.30;99.90;;;;;;5134954;28;20183;-79
2023/02/08 09:40:01;;;;;;;0.70;0.70;;;4.40;99.90;;;;;;5135719;28;20215;-77
2023/02/08 09:42:44;;;;;;;0.50;0.50;;;4.50;99.90;;;;;;5118978;28;20191;-77
2023/02/08 09:45:46;;;;;;;0.60;0.60;;;4.50;99.90;;;;;;5113363;28;20223;-77
2023/02/08 09:49:03;;;;;;;0.50;0.50;;;4.40;99.90;;;;;;5113690;28;20191;-77
2023/02/08 09:51:43;;;;;;;0.60;0.60;;;4.40;99.90;;;;;;5034281;28;20240;-76
2023/02/08 09:54:46;;;;;;;0.60;0.60;;;4.60;99.90;;;;;;5051851;28;20269;-77
2023/02/08 09:57:31;;;;;;;0.70;0.70;;;4.50;99.90;;;;;;5035233;28;20193;-76
2023/02/08 10:06:42;;;;;;;;;;;;;;;;;;;;;
2023/02/08 10:09:57;;;;;;;0.50;0.50;;;4.80;99.90;;;;;;4980234;28;20263;-78
2023/02/08 10:12:57;;;;;;;1.15;1.15;;;5.00;99.90;;;;;;4961771;28;20196;-78
2023/02/08 10:26:21;;;;;;;;;;;;;;;;;;;;;
2023/02/08 10:33:02;;;;;;;0.63;0.63;;;5.40;99.90;;;;;;5020670;28;20205;-80
2023/02/08 10:39:03;;;;;;;0.60;0.60;;;5.30;99.90;;;;;;5013461;28;20290;-78
2023/02/08 10:42:07;;;;;;;0.70;0.70;;;5.30;99.90;;;;;;5098444;28;20226;-82
2023/02/08 10:48:41;;;;;;;0.60;0.60;;;5.40;99.90;;;;;;5097177;28;20269;-78
2023/02/08 10:51:31;;;;;;;0.70;0.70;;;5.40;99.90;;;;;;5113541;28;20662;-77
2023/02/08 11:01:17;;;;;;;0.60;0.60;;;5.50;99.90;;;;;;5098907;28;20570;-79
2023/02/08 11:07:26;;;;;;;0.60;0.60;;;5.60;99.90;;;;;;5056141;28;20344;-78
2023/02/08 11:16:56;;;;;;;0.60;0.60;;;5.50;99.90;;;;;;5034201;28;20209;-79
2023/02/08 11:19:44;;;;;;;0.70;0.70;;;5.60;99.90;;;;;;5064541;28;20208;-78
2023/02/08 11:22:54;;;;;;;0.60;0.60;;;5.60;99.90;;;;;;5079740;28;20341;-77
2023/02/08 11:26:21;;;;;;;;;;;;;;;;;;;;;
2023/02/08 11:36:35;;;;;;;0.60;0.60;;;5.50;99.90;;;;;;4975496;28;20203;-76
2023/02/08 11:42:45;;;;;;;0.60;0.60;;;5.40;99.90;;;;;;4977642;28;20262;-77
2023/02/08 11:45:32;;;;;;;0.50;0.50;;;5.40;99.90;;;;;;4995065;28;20689;-77
2023/02/08 11:48:35;;;;;;;0.60;0.60;;;5.30;99.90;;;;;;4980446;28;20717;-81
2023/02/08 11:55:34;;;;;;;0.50;0.50;;;5.30;99.90;;;;;;4926420;29;20294;-77
2023/02/08 12:02:53;;;;;;;0.60;0.60;;;5.30;99.90;;;;;;4872561;29;20211;-78
2023/02/08 12:05:43;;;;;;;0.52;0.52;;;5.30;99.90;;;;;;4880628;29;20212;-77
2023/02/08 12:08:52;;;;;;;0.50;0.50;;;5.30;99.90;;;;;;5032265;28;20620;-78
2023/02/08 12:12:00;;;;;;;0.70;0.70;;;5.30;99.90;;;;;;5035926;28;20661;-77
2023/02/08 12:15:07;;;;;;;0.57;0.57;;;5.30;99.90;;;;;;5018471;28;20254;-77
2023/02/08 12:18:22;;;;;;;0.60;0.60;;;5.30;99.90;;;;;;5034474;28;20241;-77
2023/02/08 12:21:35;;;;;;;1.33;1.23;;;5.20;99.90;;;;;;5015063;28;20233;-77
2023/02/08 12:24:42;;;;;;;0.52;0.52;;;5.20;99.90;;;;;;5015808;28;20717;-77
2023/02/08 12:27:59;;;;;;;;;;;;;;;;;;;;;
2023/02/08 12:34:26;;;;;;;1.52;1.42;;;5.00;99.90;;;;;;5118447;28;20708;-76
2023/02/08 12:41:11;;;;;;;0.60;0.60;;;4.90;99.90;;;;;;5131286;27;20290;-76
2023/02/08 12:44:17;;;;;;;0.50;0.50;;;4.90;99.90;;;;;;5118909;27;20234;-77
2023/02/08 12:47:26;;;;;;;0.60;0.60;;;4.80;99.90;;;;;;5138538;27;20214;-80
2023/02/08 12:53:57;;;;;;;0.60;0.60;;;4.80;99.90;;;;;;5138156;27;20203;-77
2023/02/08 12:57:15;;;;;;;0.63;0.63;;;4.70;99.90;;;;;;5135518;27;20207;-75
2023/02/08 13:00:18;;;;;;;0.70;0.70;;;4.70;99.90;;;;;;5138089;27;20606;-77
2023/02/08 13:03:30;;;;;;;0.60;0.60;;;4.80;99.90;;;;;;5098652;28;20222;-78
2023/02/08 13:10:17;;;;;;;;;;;;;;;;;;;;;
2023/02/08 13:13:24;;;;;;;6.18;1.70;;;4.70;99.90;;;;;;5077617;28;20285;-80
2023/02/08 13:16:32;;;;;;;0.50;0.50;;;4.70;99.90;;;;;;5101321;28;20195;-78
2023/02/08 13:19:50;;;;;;;0.70;0.70;;;4.60;99.90;;;;;;5102172;28;20199;-77
2023/02/08 13:23:18;;;;;;;0.80;0.80;;;4.60;99.90;;;;;;5099719;28;20272;-76
2023/02/08 13:26:33;;;;;;;;;;;;;;;;;;;;;
2023/02/08 13:29:32;;;;;;;0.70;0.70;;;4.60;99.90;;;;;;5114290;28;20195;-80
2023/02/08 13:32:55;;;;;;;0.85;0.85;;;4.60;99.90;;;;;;5098023;28;20227;-77
2023/02/08 13:38:59;;;;;;;0.65;0.65;;;4.60;99.90;;;;;;5138309;27;20193;-78
2023/02/08 13:42:19;;;;;;;0.63;0.63;;;4.60;99.90;;;;;;5121475;28;20259;-78
2023/02/08 13:45:40;;;;;;;;;;;;;;;;;;;;;
2023/02/08 13:48:39;;;;;;;0.80;0.80;;;4.50;99.90;;;;;;4985028;28;20309;-78
2023/02/08 13:54:33;;;;;;;0.60;0.60;;;4.50;99.90;;;;;;5077083;28;20254;-78
2023/02/08 13:57:02;;;;;;;0.60;0.60;;;4.60;99.90;;;;;;5074248;28;20306;-78
2023/02/08 14:10:30;;;;;;;0.60;0.60;;;4.60;99.90;;;;;;5014441;28;20249;-77
2023/02/08 14:13:08;;;;;;;0.70;0.70;;;4.60;99.90;;;;;;5032503;28;20213;-77
2023/02/08 14:16:28;;;;;;;0.60;0.60;;;4.60;99.90;;;;;;5074451;28;20223;-77
2023/02/08 14:19:32;;;;;;;0.60;0.60;;;4.60;99.90;;;;;;5058399;28;20216;-77
2023/02/08 14:22:07;;;;;;;0.68;0.68;;;4.60;99.90;;;;;;5093505;28;20211;-75
2023/02/08 14:28:48;;;;;;;0.50;0.50;;;4.60;99.90;;;;;;5070517;28;20212;-77
2023/02/08 14:35:23;;;;;;;0.40;0.40;;;4.60;99.90;;;;;;5032256;28;20205;-76
2023/02/08 14:45:05;;;;;;;0.80;0.80;;;4.50;99.90;;;;;;4921916;29;20212;-77
2023/02/08 14:48:06;;;;;;;0.65;0.65;;;4.40;99.90;;;;;;4936301;29;20218;-77
2023/02/08 14:51:02;;;;;;;0.93;0.93;;;4.40;99.90;;;;;;4957853;28;20295;-77
2023/02/08 15:00:52;;;;;;;0.60;0.60;;;4.30;99.90;;;;;;4918839;29;20258;-76
2023/02/08 15:04:17;;;;;;;0.65;0.65;;;4.30;99.90;;;;;;4936536;29;20217;-75
2023/02/08 15:07:50;;;;;;;0.50;0.50;;;4.30;99.90;;;;;;4940177;29;20273;-75
2023/02/08 15:18:07;;;;;;;0.50;0.50;;;4.30;99.90;;;;;;4974648;28;20583;-76
2023/02/08 15:27:52;;;;;;;0.70;0.70;;;4.30;99.90;;;;;;4935602;29;20261;-75
2023/02/08 15:34:07;;;;;;;0.50;0.50;;;4.20;99.90;;;;;;4969787;28;20300;-75
2023/02/08 15:36:59;;;;;;;0.60;0.60;;;4.20;99.90;;;;;;4964000;28;20216;-75
2023/02/08 15:40:56;;;;;;;;;;;;;;;;;;;;;
2023/02/08 15:47:28;;;;;;;0.57;0.57;;;4.20;99.90;;;;;;4897358;29;20238;-75
2023/02/08 15:50:48;;;;;;;0.60;0.60;;;4.30;99.90;;;;;;4875363;29;20216;-75
2023/02/08 15:53:25;;;;;;;0.63;0.63;;;4.20;99.90;;;;;;4858745;29;20208;-76
2023/02/08 15:56:01;;;;;;;0.60;0.60;;;4.10;99.90;;;;;;4857465;29;20677;-75
2023/02/08 15:58:34;;;;;;;0.60;0.60;;;4.10;99.90;;;;;;4877074;29;20684;-76
2023/02/08 16:01:25;;;;;;;0.77;0.77;;;4.10;99.90;;;;;;4895056;29;20243;-75
2023/02/08 16:03:56;;;;;;;0.60;0.60;;;4.20;99.90;;;;;;4862300;29;20806;-76
2023/02/08 16:07:02;;;;;;;;;;;;;;;;;;;;;
2023/02/08 16:13:01;;;;;;;0.70;0.70;;;4.10;99.90;;;;;;4897350;29;20277;-76
2023/02/08 16:16:05;;;;;;;0.70;0.70;;;4.10;99.90;;;;;;4896579;29;20196;-75
2023/02/08 16:18:52;;;;;;;0.60;0.60;;;4.10;99.90;;;;;;4896452;29;20202;-75
2023/02/08 16:21:23;;;;;;;0.82;0.82;;;4.00;99.90;;;;;;4896737;29;20607;-75
2023/02/08 16:23:58;;;;;;;0.60;0.60;;;4.10;99.90;;;;;;4952445;28;20291;-75
2023/02/08 16:26:45;;;;;;;0.50;0.50;;;4.10;99.90;;;;;;4953746;29;20220;-75
2023/02/08 16:29:28;;;;;;;2.60;1.25;;;4.00;99.90;;;;;;5002591;28;20217;-76
2023/02/08 16:32:46;;;;;;;4.57;2.35;;;4.00;99.90;;;;;;5034767;28;20235;-74
2023/02/08 16:35:24;;;;;;;0.77;0.77;;;4.00;99.90;;;;;;5053290;28;20297;-75
2023/02/08 16:41:23;;;;;;;0.70;0.70;;;4.00;99.90;;;;;;5055198;28;20664;-75
2023/02/08 16:44:29;;;;;;;0.68;0.68;;;3.90;99.90;;;;;;5087807;28;20670;-75
2023/02/08 16:47:33;;;;;;;0.70;0.70;;;3.90;99.90;;;;;;5095013;28;20689;-75
2023/02/08 16:50:29;;;;;;;0.80;0.80;;;3.90;99.90;;;;;;5113959;28;20187;-75
2023/02/08 16:56:59;;;;;;;3.22;1.02;;;3.90;99.90;;;;;;5022654;28;20618;-75
2023/02/08 17:03:54;;;;;;;0.60;0.60;;;3.80;99.90;;;;;;5020475;28;20249;-76
2023/02/08 17:07:04;;;;;;;0.70;0.70;;;3.80;99.90;;;;;;4946118;28;20314;-75
2023/02/08 17:09:44;;;;;;;3.42;1.42;;;3.80;99.90;;;;;;4957498;28;20715;-75
2023/02/08 17:12:57;;;;;;;0.88;0.88;;;3.80;99.90;;;;;;5031316;28;20186;-76
2023/02/08 17:16:01;;;;;;;0.65;0.65;;;3.70;99.90;;;;;;4993578;28;20203;-75
2023/02/08 17:23:06;;;;;;;0.68;0.68;;;3.70;99.90;;;;;;4992362;28;20195;-76
2023/02/08 17:25:53;;;;;;;0.47;0.47;;;3.70;99.90;;;;;;4977696;28;20346;-76
2023/02/08 17:29:08;;;;;;;0.70;0.70;;;3.70;99.90;;;;;;4995343;28;20274;-77
2023/02/08 17:31:56;;;;;;;1.60;1.50;;;3.60;99.90;;;;;;4990455;28;20219;-77
2023/02/08 17:34:24;;;;;;;1.10;1.10;;;3.60;99.90;;;;;;5054919;28;20192;-77
2023/02/08 17:36:55;;;;;;;0.70;0.70;;;3.60;99.90;;;;;;5057954;28;20219;-77
2023/02/08 17:40:07;;;;;;;2.00;1.80;;;3.60;99.90;;;;;;5073454;28;20204;-75
2023/02/08 17:42:58;;;;;;;;;;;;;;;;;;;;;